Terremotos en los 7 ultimos dias con magnitug 2.0 o mayor, en un radio de 15000 km
Actualizado el = 23/07/2019 19:51

Epicentro cerca de Magnitud Distancia al Epicentro Time Link
11 km O de Searles Valley, CA 2.1 0094899489 km 156390407523/07/2019 19:47 mapa
20 km NNE de Ridgecrest, CA 2.5 0094929492 km 156390283823/07/2019 19:27 mapa
11 km SO de Searles Valley, CA 2.2 0094929492 km 156390261223/07/2019 19:23 mapa
5 km SSO de Gilroy, CA 2.8 0096399639 km 156390067023/07/2019 18:51 mapa
7 km ONO de Cobb, CA 2.0 0095539553 km 156390042223/07/2019 18:47 mapa
15 km SO de Searles Valley, CA 2.1 0094959495 km 156390035823/07/2019 18:45 mapa
19 km E de Little Lake, CA 2.1 0094859485 km 156389916823/07/2019 18:26 mapa
18 km E de Little Lake, CA 2.4 0094899489 km 156389850023/07/2019 18:15 mapa
14 km ONO de Johannesburg, CA 2.1 0095339533 km 156389734023/07/2019 17:55 mapa
7 km E de Coso Junction, CA 2.1 0094889488 km 156389687523/07/2019 17:47 mapa
17 km E de Little Lake, CA 2.2 0094889488 km 156389559323/07/2019 17:26 mapa
22 km ONO de Searles Valley, CA 2.1 0094919491 km 156389525523/07/2019 17:20 mapa
12 km NE de Coso Junction, CA 2.2 0094809480 km 156389512623/07/2019 17:18 mapa
14 km NNE de Coso Junction, CA 2.5 0094799479 km 156389424823/07/2019 17:04 mapa
118 km NNE de Arctic Village, Alaska 2.4 0076397639 km 156389368623/07/2019 16:54 mapa
18 km ESE de Little Lake, CA 2.1 0094929492 km 156389247023/07/2019 16:34 mapa
13 km OSO de Searles Valley, CA 2.0 0094929492 km 156389199323/07/2019 16:26 mapa
12 km SSE de Pahala, Hawaii 2.5 01304813048 km 156389192323/07/2019 16:25 mapa
23 km N de Ridgecrest, CA 2.4 0094919491 km 156388800323/07/2019 15:20 mapa
111 km E de Basco, Philippines 4.9 01118511185 km 156388745523/07/2019 15:10 mapa
5 km SO de Volcano, Hawaii 2.0 01301013010 km 156388713723/07/2019 15:05 mapa
14 km SO de Searles Valley, CA 2.7 0094959495 km 156388686023/07/2019 15:01 mapa
13 km OSO de Searles Valley, CA 2.0 0094939493 km 156388651323/07/2019 14:55 mapa
14 km SSO de Searles Valley, CA 2.3 0094949494 km 156388506623/07/2019 14:31 mapa
51 km SO de Currant, Nevada 2.4 0091769176 km 156388500623/07/2019 14:30 mapa
14 km OSO de Searles Valley, CA 2.6 0094949494 km 156388370223/07/2019 14:08 mapa
36 km E de Johannesburg, CA 2.8 0095019501 km 156388342223/07/2019 14:03 mapa
13 km SO de Searles Valley, CA 2.0 0094949494 km 156388320423/07/2019 14:00 mapa
192 km ESE de Palora, Ecuador 4.9 0089528952 km 156388229723/07/2019 13:44 mapa
106 km SSE de Acari, Peru 4.8 0098019801 km 156388208423/07/2019 13:41 mapa
17 km O de Searles Valley, CA 2.4 0094939493 km 156388030123/07/2019 13:11 mapa
18 km O de Searles Valley, CA 2.7 0094929492 km 156387937923/07/2019 12:56 mapa
65 km O de Mentone, Texas 2.5 0088998899 km 156387857723/07/2019 12:42 mapa
110 km NO de Talkeetna, Alaska 2.0 0083718371 km 156387710823/07/2019 12:18 mapa
13 km NNE de Old Faithful Geyser, Wyoming 2.4 0083978397 km 156387650623/07/2019 12:08 mapa
22 km NNE de Trona, CA 2.2 0094599459 km 156387479023/07/2019 11:39 mapa
1 km SO de Parang, Philippines 4.8 01231512315 km 156387471123/07/2019 11:38 mapa
51 km NNO de Nikiski, Alaska 2.5 0085758575 km 156387398823/07/2019 11:26 mapa
82 km N de Redoubt Volcano, Alaska 2.3 0085878587 km 156387397723/07/2019 11:26 mapa
137 km ONO de Talkeetna, Alaska 2.3 0084478447 km 156387330023/07/2019 11:15 mapa
43 km N de Hatillo, Puerto Rico 2.0 0066796679 km 156387272523/07/2019 11:05 mapa
67 km N de Petersburg, Alaska 2.5 0084078407 km 156387243123/07/2019 11:00 mapa
18 km E de Ridgecrest, CA 2.2 0094999499 km 156387183723/07/2019 10:50 mapa
24 km N de Searles Valley, CA 2.1 0094619461 km 156387094423/07/2019 10:35 mapa
251 km E de Amahai, Indonesia 4.6 01375913759 km 156387083223/07/2019 10:33 mapa
10 km NO de Aguada, Puerto Rico 2.2 0067456745 km 156387034223/07/2019 10:25 mapa
53 km ESE de Nikolski, Alaska 3.8 0097349734 km 156386797423/07/2019 09:46 mapa
16 km S de Searles Valley, CA 4.1 0094939493 km 156386790223/07/2019 09:45 mapa
8 km E de Ridgecrest, CA 2.0 0095059505 km 156386710723/07/2019 09:31 mapa
13 km NNE de Old Faithful Geyser, Wyoming 2.1 0083978397 km 156386516823/07/2019 08:59 mapa
20 km SSO de Trona, CA 2.2 0094969496 km 156386497023/07/2019 08:56 mapa
12 km SO de Searles Valley, CA 2.1 0094939493 km 156386481123/07/2019 08:53 mapa
14 km NNE de Old Faithful Geyser, Wyoming 2.9 0083978397 km 156386402923/07/2019 08:40 mapa
21 km ESE de Little Lake, CA 2.0 0094919491 km 156386341823/07/2019 08:30 mapa
21 km ESE de Little Lake, CA 2.4 0094919491 km 156386338723/07/2019 08:29 mapa
15 km SO de Searles Valley, CA 2.0 0094959495 km 156386268823/07/2019 08:18 mapa
4 km ESE de Pahala, Hawaii 2.3 01303813038 km 156386034923/07/2019 07:39 mapa
18 km S de Trona, CA 2.0 0094919491 km 156385936223/07/2019 07:22 mapa
11 km SSO de Searles Valley, CA 2.2 0094919491 km 156385922523/07/2019 07:20 mapa
23 km N de Ridgecrest, CA 2.0 0094939493 km 156385895123/07/2019 07:15 mapa
6 km E de Espino, Puerto Rico 2.1 0067376737 km 156385658423/07/2019 06:36 mapa
7 km ENE de Pepeekeo, Hawaii 2.6 01295412954 km 156385598623/07/2019 06:26 mapa
16 km SSO de Big Lake, Alaska 2.9 0085238523 km 156385212423/07/2019 05:22 mapa
102 km NNE de Taniwel, Indonesia 4.9 01345913459 km 156385139523/07/2019 05:09 mapa
74 km S de Old Iliamna, Alaska 3.3 0088528852 km 156385119823/07/2019 05:06 mapa
2 km ESE de Salina Cruz, Mexico 4.5 0092779277 km 156385018023/07/2019 04:49 mapa
75 km OSO de Cordova, Alaska 2.0 0085658565 km 156384912723/07/2019 04:32 mapa
292 km NNO de Chichi-shima, Japan 4.6 01142111421 km 156384911923/07/2019 04:31 mapa
20 km ESE de Little Lake, CA 2.0 0094919491 km 156384726923/07/2019 04:01 mapa
17 km O de Johannesburg, CA 2.0 0095409540 km 156384637923/07/2019 03:46 mapa
14 km O de Searles Valley, CA 3.9 0094929492 km 156384577823/07/2019 03:36 mapa
20 km E de Little Lake, CA 2.1 0094869486 km 156384443623/07/2019 03:13 mapa
18 km NNO de Alva, Oklahoma 2.1 0081378137 km 156384083023/07/2019 02:13 mapa
12 km SSE de Asahi, Japan 4.4 01081310813 km 156384060923/07/2019 02:10 mapa
52 km NO de San Antonio, Puerto Rico 2.5 0067376737 km 156384004823/07/2019 02:00 mapa
25 km NNE de California City, CA 2.1 0095469546 km 156383938023/07/2019 01:49 mapa
11 km O de Templeton, CA 2.5 0097119711 km 156383919823/07/2019 01:46 mapa
14 km SSO de Searles Valley, CA 2.4 0094949494 km 156383887323/07/2019 01:41 mapa
22 km S de Trona, CA 2.2 0094969496 km 156383752123/07/2019 01:18 mapa
23 km NE de Bandar-e Lengeh, Iran 5.0 0052795279 km 156383634123/07/2019 00:59 mapa
20 km NNE de Ridgecrest, CA 2.1 0094929492 km 156383557323/07/2019 00:46 mapa
67 km OSO de San Juan del Sur, Nicaragua 4.6 0088918891 km 156383467223/07/2019 00:31 mapa
94 km OSO de Cantwell, Alaska 2.0 0083498349 km 156383290723/07/2019 00:01 mapa
11 km ENE de Ridgecrest, CA 2.1 0094999499 km 156383161822/07/2019 23:40 mapa
66 km ONO de Talkeetna, Alaska 2.0 0084248424 km 156383045822/07/2019 23:20 mapa
14 km NNE de San Lucas, CA 2.1 0096599659 km 156382917922/07/2019 22:59 mapa
103 km NNE de Ishigaki, Japan 5.1 01086010860 km 156382841822/07/2019 22:46 mapa
19 km E de Ridgecrest, CA 2.0 0094989498 km 156382840422/07/2019 22:46 mapa
20 km S de Searles Valley, CA 2.1 0094979497 km 156382829322/07/2019 22:44 mapa
14 km SSO de Searles Valley, CA 3.0 0094939493 km 156382634722/07/2019 22:12 mapa
10 km ENE de Coso Junction, CA 2.3 0094839483 km 156382559122/07/2019 21:59 mapa
19 km E de Little Lake, CA 2.3 0094889488 km 156382447622/07/2019 21:41 mapa
15 km NNE de Coso Junction, CA 2.3 0094789478 km 156382337722/07/2019 21:22 mapa
61 km O de Talkeetna, Alaska 3.3 0084488448 km 156382316222/07/2019 21:19 mapa
16 km S de Twentynine Palms, CA 2.7 0095359535 km 156382311922/07/2019 21:18 mapa
23 km ESE de Little Lake, CA 2.1 0094899489 km 156382263122/07/2019 21:10 mapa
124 km OSO de Petrolia, CA 2.6 0096169616 km 156382196222/07/2019 20:59 mapa
8 km ENE de Ridgecrest, CA 2.2 0095029502 km 156382144222/07/2019 20:50 mapa
20 km NNE de Ridgecrest, CA 2.5 0094929492 km 156382047022/07/2019 20:34 mapa
14 km SSO de Searles Valley, CA 2.0 0094949494 km 156382033922/07/2019 20:32 mapa
24 km ESE de Little Lake, CA 3.0 0094909490 km 156382028022/07/2019 20:31 mapa
12 km SO de Searles Valley, CA 2.1 0094939493 km 156382015722/07/2019 20:29 mapa
22 km ENE de Cascade, Idaho 2.1 0086898689 km 156381915822/07/2019 20:12 mapa
14 km OSO de Salvaleon de Higuey, Dominican Republic 2.6 0068726872 km 156381905122/07/2019 20:10 mapa
16 km S de Twentynine Palms, CA 2.2 0095359535 km 156381771322/07/2019 19:48 mapa
61 km E de Cape Yakataga, Alaska 2.1 0084258425 km 156381622322/07/2019 19:23 mapa
102 km S de Semisopochnoi Island, Alaska 3.8 01000310003 km 156381585222/07/2019 19:17 mapa
4 km ENE de Fritz Creek, Alaska 2.0 0087118711 km 156381544022/07/2019 19:10 mapa
67 km ONO de Ferndale, CA 3.7 0095169516 km 156381533522/07/2019 19:08 mapa
26 km S de Trona, CA 2.8 0094969496 km 156381306622/07/2019 18:31 mapa
16 km S de Twentynine Palms, CA 4.2 0095359535 km 156381281622/07/2019 18:26 mapa
16 km ESE de Little Lake, CA 2.0 0094929492 km 156380925622/07/2019 17:27 mapa
14 km SE de Olancha, CA 2.5 0094759475 km 156380921222/07/2019 17:26 mapa
14 km SSO de Searles Valley, CA 2.1 0094939493 km 156380881722/07/2019 17:20 mapa
20 km SE de Homer, Alaska 2.2 0087348734 km 156380495722/07/2019 16:15 mapa
51 km OSO de Attu Station, Alaska 4.3 0097979797 km 156380358622/07/2019 15:53 mapa
18 km E de Little Lake, CA 2.1 0094879487 km 156380349222/07/2019 15:51 mapa
10 km ENE de Coso Junction, CA 2.8 0094839483 km 156380216022/07/2019 15:29 mapa
9 km NE de Coso Junction, CA 2.4 0094839483 km 156379936822/07/2019 14:42 mapa
18 km SSO de Ewirgol, China 4.7 0070607060 km 156379873822/07/2019 14:32 mapa
15 km NO de Gunnison, Utah 2.3 0088648864 km 156379761322/07/2019 14:13 mapa
10 km NNE de Ridgecrest, CA 2.0 0095009500 km 156379722422/07/2019 14:07 mapa
20 km ONO de Searles Valley, CA 2.4 0094929492 km 156379598922/07/2019 13:46 mapa
5 km NO de The Geysers, CA 2.1 0095559555 km 156379433022/07/2019 13:18 mapa
69 km O de Mentone, Texas 2.8 0089078907 km 156379225722/07/2019 12:44 mapa
17 km ESE de Boonville, CA 2.0 0095689568 km 156379070822/07/2019 12:18 mapa
21 km N de Ridgecrest, CA 2.8 0094929492 km 156379042422/07/2019 12:13 mapa
232 km E de Amahai, Indonesia 5.5 01372813728 km 156379001622/07/2019 12:06 mapa
17 km E de Little Lake, CA 3.0 0094859485 km 156378871022/07/2019 11:45 mapa
15 km OSO de Searles Valley, CA 2.3 0094949494 km 156378580322/07/2019 10:56 mapa
21 km ESE de Little Lake, CA 2.3 0094909490 km 156378496022/07/2019 10:42 mapa
22 km ESE de Xunchang, China 4.6 0092619261 km 156378400122/07/2019 10:26 mapa
8 km NNE de Coso Junction, CA 2.3 0094859485 km 156378364422/07/2019 10:20 mapa
116 km ONO de Arctic Village, Alaska 2.4 0077487748 km 156378346922/07/2019 10:17 mapa
8 km N de Hatillo, Puerto Rico 2.3 0066976697 km 156378325922/07/2019 10:14 mapa
11 km SO de Searles Valley, CA 2.0 0094929492 km 156378246322/07/2019 10:01 mapa
80 km N de Isabela, Puerto Rico 2.6 0066656665 km 156378209822/07/2019 09:54 mapa
38 km NNO de Iwo Jima, Japan 4.5 01185111851 km 156378191022/07/2019 09:51 mapa
22 km E de Little Lake, CA 2.4 0094829482 km 156378166222/07/2019 09:47 mapa
18 km N de Ridgecrest, CA 2.1 0094949494 km 156378108722/07/2019 09:38 mapa
1 km NNE de Anchor Point, Alaska 2.3 0087208720 km 156377940522/07/2019 09:10 mapa
6 km O de Cobb, CA 2.2 0095539553 km 156377660922/07/2019 08:23 mapa
19 km ESE de Little Lake, CA 2.3 0094929492 km 156377645822/07/2019 08:20 mapa
68 km ENE de Mutsu, Japan 4.5 01029610296 km 156377404922/07/2019 07:40 mapa
13 km SO de Searles Valley, CA 2.1 0094939493 km 156377244422/07/2019 07:14 mapa
14 km SSO de Searles Valley, CA 2.4 0094939493 km 156377213822/07/2019 07:08 mapa
122 km SSO de Merizo Village, Guam 4.9 01324913249 km 156377115522/07/2019 06:52 mapa
15 km OSO de Searles Valley, CA 2.0 0094949494 km 156377055322/07/2019 06:42 mapa
21 km ESE de Little Lake, CA 2.1 0094899489 km 156376903722/07/2019 06:17 mapa
8 km ENE de Ridgecrest, CA 2.0 0095029502 km 156376865522/07/2019 06:10 mapa
232 km E de Amahai, Indonesia 5.2 01372813728 km 156376849722/07/2019 06:08 mapa
106 km O de Itbayat, Philippines 4.9 01098210982 km 156376836422/07/2019 06:06 mapa
89 km NO de Nikiski, Alaska 2.0 0085798579 km 156376763822/07/2019 05:53 mapa
24 km OSO de Pole Ojea, Puerto Rico 2.2 0067916791 km 156376402922/07/2019 04:53 mapa
25 km SO de Fairview, Oklahoma 2.7 0081888188 km 156376200322/07/2019 04:20 mapa
2 km NE de Quinton, Oklahoma 2.3 0080088008 km 156376126122/07/2019 04:07 mapa
6 km O de Cobb, CA 2.1 0095539553 km 156375919922/07/2019 03:33 mapa
11 km SSE de Big Lake, Alaska 3.1 0085128512 km 156375853822/07/2019 03:22 mapa
11 km SSE de San Luis Ixcan, Guatemala 4.5 0089628962 km 156375773622/07/2019 03:08 mapa
85 km SSO de Middleton Island, Alaska 2.1 0087128712 km 156375766322/07/2019 03:07 mapa
18 km OSO de Lanare, CA 2.0 0095989598 km 156375680522/07/2019 02:53 mapa
21 km NNO de Searles Valley, CA 2.4 0094719471 km 156375635322/07/2019 02:45 mapa
19 km ESE de Little Lake, CA 2.9 0094929492 km 156375598722/07/2019 02:39 mapa
34 km SSO de Monahans, Texas 2.7 0088368836 km 156375593122/07/2019 02:38 mapa
11 km OSO de Searles Valley, CA 2.6 0094909490 km 156375477522/07/2019 02:19 mapa
13 km OSO de Delta, B.C., MX 2.3 0096219621 km 156375349522/07/2019 01:58 mapa
71 km SSO de Kobuk, Alaska 2.6 0081408140 km 156375262622/07/2019 01:43 mapa
15 km ONO de Enoch, Utah 2.1 0090549054 km 156375247922/07/2019 01:41 mapa
19 km ESE de Little Lake, CA 2.4 0094909490 km 156375244322/07/2019 01:40 mapa
14 km ONO de Enoch, Utah 2.1 0090539053 km 156375205422/07/2019 01:34 mapa
13 km ENE de Little Lake, CA 2.0 0094869486 km 156375114122/07/2019 01:19 mapa
10 km ENE de Coso Junction, CA 2.2 0094839483 km 156374928722/07/2019 00:48 mapa
Izu Islands, Japan region 4.8 01145411454 km 156374920322/07/2019 00:46 mapa
20 km ESE de Little Lake, CA 2.0 0094899489 km 156374791022/07/2019 00:25 mapa
33 km NNO de Nago, Japan 4.6 01093910939 km 156374375521/07/2019 23:15 mapa
29 km NO de Nago, Japan 4.6 01094310943 km 156374360021/07/2019 23:13 mapa
0 km NO de Anchorage, Alaska 2.8 0085328532 km 156374340821/07/2019 23:10 mapa
Easter Island region 4.7 01377613776 km 156374274221/07/2019 22:59 mapa
10 km ENE de Coso Junction, CA 2.1 0094839483 km 156374254021/07/2019 22:55 mapa
21 km ESE de Little Lake, CA 2.0 0094889488 km 156374230621/07/2019 22:51 mapa
14 km SSO de Searles Valley, CA 2.1 0094949494 km 156374188821/07/2019 22:44 mapa
25 km NNE de California City, CA 2.0 0095469546 km 156374123921/07/2019 22:33 mapa
25 km O de Johannesburg, CA 2.2 0095469546 km 156374085121/07/2019 22:27 mapa
74 km SSE de Bengkulu, Indonesia 4.5 01144511445 km 156374067921/07/2019 22:24 mapa
7 km E de Pahala, Hawaii 2.0 01303513035 km 156373797721/07/2019 21:39 mapa
11 km NE de Coso Junction, CA 2.4 0094819481 km 156373680421/07/2019 21:20 mapa
13 km NO de Cempa, Indonesia 4.4 01319613196 km 156373672221/07/2019 21:18 mapa
13 km ENE de Coso Junction, CA 2.0 0094819481 km 156373584421/07/2019 21:04 mapa
73 km N de Arecibo, Puerto Rico 2.5 0066486648 km 156373465521/07/2019 20:44 mapa
46 km ESE de Alamo, Nevada 2.0 0091989198 km 156373146321/07/2019 19:51 mapa
25 km NNE de California City, CA 2.0 0095479547 km 156373091121/07/2019 19:41 mapa
115 km SSO de Merizo Village, Guam 5.5 01325513255 km 156373053821/07/2019 19:35 mapa
108 km S de Merizo Village, Guam 5.2 01325513255 km 156372991921/07/2019 19:25 mapa
33 km ENE de Punta Cana, Dominican Republic 2.6 0068006800 km 156372926921/07/2019 19:14 mapa
15 km NE de Ridgecrest, CA 3.1 0094959495 km 156372896221/07/2019 19:09 mapa
13 km NE de Roshtqal'a, Tajikistan 4.4 0061596159 km 156372839521/07/2019 18:59 mapa
15 km SO de Searles Valley, CA 2.0 0094969496 km 156372833421/07/2019 18:58 mapa
24 km E de Healy, Alaska 2.0 0082378237 km 156372707621/07/2019 18:37 mapa
25 km NNE de California City, CA 2.5 0095479547 km 156372681621/07/2019 18:33 mapa
19 km ESE de Little Lake, CA 2.3 0094929492 km 156372553121/07/2019 18:12 mapa
18 km S de Trona, CA 2.6 0094909490 km 156372425521/07/2019 17:50 mapa
286 km SE de Kodiak, Alaska 3.6 0090539053 km 156372414721/07/2019 17:49 mapa
7 km SE de Morris, Oklahoma 2.2 0080168016 km 156372348021/07/2019 17:38 mapa
9 km SO de Ridgemark, CA 2.3 0096479647 km 156372317021/07/2019 17:32 mapa
93 km O de Willow, Alaska 2.1 0085268526 km 156372192721/07/2019 17:12 mapa
22 km S de Trona, CA 2.2 0094939493 km 156372089221/07/2019 16:54 mapa
22 km N de Ridgecrest, CA 2.6 0094929492 km 156372080321/07/2019 16:53 mapa
42 km OSO de Mouzaki, Greece 4.5 0018221822 km 156372079021/07/2019 16:53 mapa
103 km S de Tok, Alaska 2.5 0082558255 km 156371990921/07/2019 16:38 mapa
80 km S de Kushiro, Japan 4.7 01031010310 km 156371770221/07/2019 16:01 mapa
35 km OSO de Pagan, Northern Mariana Islands 4.6 01276212762 km 156371684221/07/2019 15:47 mapa
23 km ESE de Little Lake, CA 2.2 0094879487 km 156371640821/07/2019 15:40 mapa
7 km O de Pioche, Nevada 2.9 0091239123 km 156371599421/07/2019 15:33 mapa
11 km SE de Vieques, Puerto Rico 2.6 0066026602 km 156371539321/07/2019 15:23 mapa
90 km N de Redoubt Volcano, Alaska 2.6 0085888588 km 156371447721/07/2019 15:07 mapa
276 km SO de Severo-Kuril'sk, Russia 4.8 0099219921 km 156371243821/07/2019 14:33 mapa
36 km S de Yongbei, China 4.8 0090929092 km 156371180921/07/2019 14:23 mapa
13 km OSO de Searles Valley, CA 2.0 0094939493 km 156371169021/07/2019 14:21 mapa
15 km ENE de Ridgecrest, CA 3.2 0094969496 km 156371017121/07/2019 13:56 mapa
18 km E de Ridgecrest, CA 3.1 0094989498 km 156370569721/07/2019 12:41 mapa
21 km SE de Punta Cana, Dominican Republic 2.7 0068286828 km 156370568221/07/2019 12:41 mapa
14 km SO de Searles Valley, CA 2.9 0094949494 km 156370522721/07/2019 12:33 mapa
13 km ENE de Ridgecrest, CA 2.0 0094979497 km 156370044221/07/2019 11:14 mapa
8 km SSE de Cajnice, Bosnia and Herzegovina 4.2 0017101710 km 156370007421/07/2019 11:07 mapa
36 km SE de Pecos, Texas 2.5 0088618861 km 156369997421/07/2019 11:06 mapa
18 km NNE de Ridgecrest, CA 2.5 0094939493 km 156369963521/07/2019 11:00 mapa
13 km SE de Olancha, CA 2.4 0094779477 km 156369893521/07/2019 10:48 mapa
16 km SE de Volcano, Hawaii 2.7 01301213012 km 156369889621/07/2019 10:48 mapa
15 km SO de Searles Valley, CA 2.1 0094959495 km 156369823121/07/2019 10:37 mapa
42 km NNO de San Antonio, Puerto Rico 2.1 0067266726 km 156369755321/07/2019 10:25 mapa
11 km SSO de Honoka'a, Hawaii 2.2 01295912959 km 156369739321/07/2019 10:23 mapa
5 km SSE de Pahala, Hawaii 2.1 01304213042 km 156369670521/07/2019 10:11 mapa
18 km NNE de Ridgecrest, CA 3.0 0094939493 km 156369461721/07/2019 09:36 mapa
50 km NE de Illapel, Chile 4.3 01066410664 km 156369415921/07/2019 09:29 mapa
4 km SO de Srebrenik, Bosnia and Herzegovina 4.2 0016881688 km 156369273021/07/2019 09:05 mapa
15 km SSO de Searles Valley, CA 2.6 0094949494 km 156369142721/07/2019 08:43 mapa
22 km S de Trona, CA 2.1 0094969496 km 156369085921/07/2019 08:34 mapa
21 km ESE de Little Lake, CA 2.3 0094909490 km 156368925221/07/2019 08:07 mapa
16 km E de Ridgecrest, CA 3.3 0094979497 km 156368703821/07/2019 07:30 mapa
141 km NO de Saumlaki, Indonesia 4.5 01396813968 km 156368415521/07/2019 06:42 mapa
91 km N de Charlotte Amalie, U.S. Virgin Islands 2.7 0065056505 km 156368373021/07/2019 06:35 mapa
60 km NO de Aguadilla, Puerto Rico 2.6 0067476747 km 156368134021/07/2019 05:55 mapa
26 km N de Punta Cana, Dominican Republic 3.0 0068156815 km 156368028221/07/2019 05:38 mapa
14 km OSO de Searles Valley, CA 2.3 0094949494 km 156368011421/07/2019 05:35 mapa
15 km E de Little Lake, CA 2.5 0094909490 km 156368009921/07/2019 05:34 mapa
15 km E de Little Lake, CA 2.5 0094909490 km 156367899421/07/2019 05:16 mapa
1 km ONO de Manhattan, Montana 2.4 0083388338 km 156367805121/07/2019 05:00 mapa
4 km OSO de Volcano, Hawaii 2.1 01300913009 km 156367718721/07/2019 04:46 mapa
12 km SSO de Searles Valley, CA 3.0 0094929492 km 156367687721/07/2019 04:41 mapa
22 km E de Little Lake, CA 2.0 0094819481 km 156367626321/07/2019 04:31 mapa
11 km NE de Coso Junction, CA 2.0 0094819481 km 156367601421/07/2019 04:26 mapa
16 km E de Little Lake, CA 3.3 0094909490 km 156367581321/07/2019 04:23 mapa
21 km ESE de Little Lake, CA 2.5 0094929492 km 156367493621/07/2019 04:08 mapa
61 km N de Culebra, Puerto Rico 2.4 0065476547 km 156367477321/07/2019 04:06 mapa
8 km ESE de Deep Springs, CA 2.1 0093869386 km 156367437321/07/2019 03:59 mapa
8 km ESE de Deep Springs, CA 2.6 0093869386 km 156367360421/07/2019 03:46 mapa
7 km OSO de Volcano, Hawaii 2.9 01301113011 km 156367193021/07/2019 03:18 mapa
5 km OSO de Volcano, Hawaii 2.7 01300913009 km 156367192321/07/2019 03:18 mapa
14 km OSO de Delta, B.C., MX 3.6 0096219621 km 156367191321/07/2019 03:18 mapa
5 km OSO de Volcano, Hawaii 2.4 01300913009 km 156367186821/07/2019 03:17 mapa
16 km SSO de Searles Valley, CA 2.4 0094969496 km 156367148421/07/2019 03:11 mapa
17 km E de Little Lake, CA 2.2 0094899489 km 156367102621/07/2019 03:03 mapa
20 km ESE de Little Lake, CA 2.0 0094929492 km 156367046021/07/2019 02:54 mapa
22 km E de Little Lake, CA 2.5 0094819481 km 156367037321/07/2019 02:52 mapa
13 km O de Port Hueneme, CA 2.0 0097339733 km 156367004021/07/2019 02:47 mapa
13 km ENE de Ridgecrest, CA 2.5 0094979497 km 156366771721/07/2019 02:08 mapa
18 km E de Little Lake, CA 2.0 0094869486 km 156366710321/07/2019 01:58 mapa
23 km NNO de Searles Valley, CA 2.1 0094699469 km 156366629921/07/2019 01:44 mapa
9 km SO de Boca de Yuma, Dominican Republic 2.8 0068736873 km 156366602721/07/2019 01:40 mapa
20 km E de Little Lake, CA 2.1 0094869486 km 156366346121/07/2019 00:57 mapa
65 km SE de Whittier, Alaska 2.3 0085698569 km 156366322621/07/2019 00:53 mapa
16 km S de Searles Valley, CA 2.2 0094949494 km 156366221521/07/2019 00:36 mapa
13 km ENE de Ridgecrest, CA 2.7 0094969496 km 156366161121/07/2019 00:26 mapa
13 km ENE de Ridgecrest, CA 2.4 0094979497 km 156366079321/07/2019 00:13 mapa
10 km ENE de Pahala, Hawaii 2.1 01303013030 km 156366034421/07/2019 00:05 mapa
25 km ENE de Cascade, Idaho 2.5 0086868686 km 156366015321/07/2019 00:02 mapa
17 km O de Searles Valley, CA 3.1 0094929492 km 156365908020/07/2019 23:44 mapa
43 km ENE de Miches, Dominican Republic 2.7 0068216821 km 156365836920/07/2019 23:32 mapa
10 km NO de Challis, Idaho 2.6 0086078607 km 156365802520/07/2019 23:27 mapa
18 km S de Trona, CA 3.0 0094949494 km 156365713620/07/2019 23:12 mapa
11 km SO de Searles Valley, CA 2.5 0094929492 km 156365668720/07/2019 23:04 mapa
17 km ESE de Little Lake, CA 2.3 0094919491 km 156365617220/07/2019 22:56 mapa
17 km ESE de Little Lake, CA 2.6 0094929492 km 156365608120/07/2019 22:54 mapa
15 km SE de Anza, CA 2.0 0096129612 km 156365402820/07/2019 22:20 mapa
8 km SSE de Pahala, Hawaii 2.1 01304413044 km 156365336420/07/2019 22:09 mapa
19 km S de Trona, CA 2.0 0094949494 km 156365016420/07/2019 21:16 mapa
9 km E de Elmira, CA 2.0 0095369536 km 156364907820/07/2019 20:57 mapa
19 km ESE de Little Lake, CA 3.7 0094919491 km 156364859820/07/2019 20:49 mapa
21 km ESE de Little Lake, CA 2.1 0094899489 km 156364822920/07/2019 20:43 mapa
Easter Island region 5.1 01371413714 km 156364703420/07/2019 20:23 mapa
17 km ESE de Little Lake, CA 2.5 0094919491 km 156364668620/07/2019 20:18 mapa
13 km ENE de Borrego Springs, CA 3.2 0096029602 km 156364649520/07/2019 20:14 mapa
4 km NNO de Brenas, Puerto Rico 2.6 0066616661 km 156364559020/07/2019 19:59 mapa
18 km E de Little Lake, CA 3.4 0094859485 km 156364525820/07/2019 19:54 mapa
18 km SE de Shandon, CA 2.2 0096779677 km 156364474820/07/2019 19:45 mapa
69 km O de Big Lake, Alaska 2.4 0085418541 km 156364269020/07/2019 19:11 mapa
24 km NNE de California City, CA 2.1 0095479547 km 156364257420/07/2019 19:09 mapa
2 km NO de The Geysers, CA 2.2 0095559555 km 156363830320/07/2019 17:58 mapa
2 km NO de The Geysers, CA 3.2 0095559555 km 156363827320/07/2019 17:57 mapa
26 km S de Trona, CA 2.4 0094979497 km 156363730920/07/2019 17:41 mapa
12 km ENE de Coso Junction, CA 2.9 0094829482 km 156363693520/07/2019 17:35 mapa
5 km NO de The Geysers, CA 2.0 0095559555 km 156363657820/07/2019 17:29 mapa
13 km OSO de Searles Valley, CA 2.1 0094939493 km 156363510220/07/2019 17:05 mapa
15 km NNO de Anchorage, Alaska 2.0 0085248524 km 156363213920/07/2019 16:15 mapa
20 km E de Little Lake, CA 2.5 0094829482 km 156363174320/07/2019 16:09 mapa
71 km SSO de Kobuk, Alaska 2.2 0081408140 km 156363173520/07/2019 16:08 mapa
21 km ENE de Little Lake, CA 2.3 0094819481 km 156363096820/07/2019 15:56 mapa
41 km OSO de Homer, Alaska 2.1 0087638763 km 156363067120/07/2019 15:51 mapa
11 km SSO de Searles Valley, CA 2.7 0094929492 km 156363022620/07/2019 15:43 mapa
Mid-Indian Ridge 4.8 0087598759 km 156362966220/07/2019 15:34 mapa
127 km SO de Palimbang, Philippines 4.5 01246212462 km 156362942020/07/2019 15:30 mapa
2 km E de Enetai, Washington 2.0 0088138813 km 156362900020/07/2019 15:23 mapa
92 km ENE de Cape Yakataga, Alaska 2.0 0083998399 km 156362840820/07/2019 15:13 mapa
16 km NE de Hawaiian Paradise Park, Hawaii 2.5 01296512965 km 156362707020/07/2019 14:51 mapa
20 km ESE de Little Lake, CA 2.2 0094939493 km 156362518920/07/2019 14:19 mapa
298 km SO de Hanga Roa, Chile 4.9 01371213712 km 156362366020/07/2019 13:54 mapa
14 km ENE de Ridgecrest, CA 2.1 0094979497 km 156362345420/07/2019 13:50 mapa
88 km NO de Nikiski, Alaska 2.4 0085818581 km 156362342820/07/2019 13:50 mapa
89 km N de Redoubt Volcano, Alaska 2.1 0085828582 km 156362340320/07/2019 13:50 mapa
121 km OSO de Kota Ternate, Indonesia 4.5 01308713087 km 156362095020/07/2019 13:09 mapa
12 km NE de Coso Junction, CA 2.0 0094809480 km 156362038920/07/2019 12:59 mapa
17 km SSO de Searles Valley, CA 2.3 0094979497 km 156362027020/07/2019 12:57 mapa
13 km SO de Searles Valley, CA 2.5 0094939493 km 156361969920/07/2019 12:48 mapa
11 km SE de Caldwell, Kansas 2.0 0080478047 km 156361918620/07/2019 12:39 mapa
11 km SO de Searles Valley, CA 2.1 0094929492 km 156361877720/07/2019 12:32 mapa
18 km O de Searles Valley, CA 2.4 0094919491 km 156361669320/07/2019 11:58 mapa
Easter Island region 4.8 01376213762 km 156361494420/07/2019 11:29 mapa
9 km ENE de Coso Junction, CA 2.2 0094859485 km 156361290220/07/2019 10:55 mapa
71 km SSO de Kobuk, Alaska 2.1 0081408140 km 156361273920/07/2019 10:52 mapa
12 km OSO de Searles Valley, CA 2.0 0094929492 km 156361261720/07/2019 10:50 mapa
12 km OSO de Searles Valley, CA 2.3 0094929492 km 156361075820/07/2019 10:19 mapa
20 km S de Trona, CA 2.2 0094969496 km 156361045620/07/2019 10:14 mapa
14 km SO de Searles Valley, CA 2.9 0094959495 km 156360979220/07/2019 10:03 mapa
10 km NE de Coso Junction, CA 2.2 0094839483 km 156360849320/07/2019 09:41 mapa
12 km SO de Searles Valley, CA 2.0 0094939493 km 156360624220/07/2019 09:04 mapa
98 km O de Willow, Alaska 2.5 0085058505 km 156360536220/07/2019 08:49 mapa
108 km NE de Laiwui, Indonesia 4.0 01331713317 km 156360467320/07/2019 08:37 mapa
37 km E de Yerington, Nevada 2.4 0093029302 km 156360460720/07/2019 08:36 mapa
13 km SE de Mammoth Lakes, CA 2.7 0094269426 km 156360377920/07/2019 08:22 mapa
50 km NNO de Dobo, Indonesia 4.5 01411814118 km 156360323420/07/2019 08:13 mapa
10 km SSE de Bombay Beach, CA 2.2 0095699569 km 156360151820/07/2019 07:45 mapa
3 km O de Palmarejo, Puerto Rico 2.0 0067566756 km 156360102520/07/2019 07:37 mapa
98 km ESE de King Salmon, Alaska 2.0 0089488948 km 156360075820/07/2019 07:32 mapa
14 km SE de Volcano, Hawaii 2.4 01301113011 km 156359715620/07/2019 06:32 mapa
24 km ESE de Ridgecrest, CA 2.3 0095009500 km 156359715120/07/2019 06:32 mapa
15 km SSO de Searles Valley, CA 2.0 0094939493 km 156359552720/07/2019 06:05 mapa
18 km OSO de Olancha, CA 2.1 0094939493 km 156359549020/07/2019 06:04 mapa
2 km SO de Kakuda, Japan 4.4 01058910589 km 156359499220/07/2019 05:56 mapa
15 km SO de Lithakia, Greece 2.6 0018561856 km 156359441120/07/2019 05:46 mapa
42 km NO de Healy, Alaska 2.8 0082278227 km 156359402920/07/2019 05:40 mapa
9 km SSE de La Parguera, Puerto Rico 2.1 0067576757 km 156359368220/07/2019 05:34 mapa
13 km O de Searles Valley, CA 2.1 0094919491 km 156359272920/07/2019 05:18 mapa
17 km SSO de Big Lake, Alaska 2.0 0085208520 km 156359265120/07/2019 05:17 mapa
127 km NNE de Vieques, Puerto Rico 3.2 0065046504 km 156359141020/07/2019 04:56 mapa
4 km N de Vega Baja, Puerto Rico 2.3 0066666666 km 156359136120/07/2019 04:56 mapa
68 km SSO de Kaktovik, Alaska 2.3 0075857585 km 156359083620/07/2019 04:47 mapa
19 km NNE de Ridgecrest, CA 2.6 0094939493 km 156359059720/07/2019 04:43 mapa
21 km ESE de Little Lake, CA 3.7 0094899489 km 156359032320/07/2019 04:38 mapa
17 km E de Little Lake, CA 2.8 0094899489 km 156359017520/07/2019 04:36 mapa
17 km ESE de Little Lake, CA 2.3 0094899489 km 156359016020/07/2019 04:36 mapa
12 km NE de Ridgecrest, CA 2.0 0094989498 km 156358918720/07/2019 04:19 mapa
43 km SO de La Gomera, Guatemala 4.5 0091179117 km 156358864720/07/2019 04:10 mapa
51 km NE de Punta Cana, Dominican Republic 2.9 0067526752 km 156358822320/07/2019 04:03 mapa
138 km NNE de Vieques, Puerto Rico 2.5 0065206520 km 156358688320/07/2019 03:41 mapa
13 km ENE de Ridgecrest, CA 2.1 0094979497 km 156358682920/07/2019 03:40 mapa
20 km E de Little Lake, CA 2.3 0094829482 km 156358633620/07/2019 03:32 mapa
18 km SE de Shandon, CA 2.3 0096779677 km 156358611420/07/2019 03:28 mapa
24 km ESE de Little Lake, CA 2.4 0094929492 km 156358566220/07/2019 03:21 mapa
65 km O de Severo-Kuril'sk, Russia 4.4 0097659765 km 156358215520/07/2019 02:22 mapa
214 km O de Broome, Australia 4.6 01389113891 km 156358188220/07/2019 02:18 mapa
11 km SO de Searles Valley, CA 2.0 0094919491 km 156358091720/07/2019 02:01 mapa
18 km E de Santa Cruz de El Seibo, Dominican Republic 3.1 0068786878 km 156357925320/07/2019 01:34 mapa
15 km SSO de Searles Valley, CA 3.5 0094959495 km 156357922520/07/2019 01:33 mapa
78 km NNO de Talkeetna, Alaska 3.0 0083718371 km 156357891820/07/2019 01:28 mapa
114 km NNO de Charlotte Amalie, U.S. Virgin Islands 2.8 0064986498 km 156357888120/07/2019 01:28 mapa
24 km ESE de Ridgecrest, CA 2.1 0095009500 km 156357865120/07/2019 01:24 mapa
66 km NE de Bomdila, India 4.9 0083788378 km 156357686420/07/2019 00:54 mapa
6 km ONO de The Geysers, CA 2.1 0095579557 km 156357663520/07/2019 00:50 mapa
12 km SE de Olancha, CA 2.4 0094769476 km 156357433420/07/2019 00:12 mapa
109 km SE de Cold Bay, Alaska 3.8 0094679467 km 156357401220/07/2019 00:06 mapa
82 km SSO de Kobuk, Alaska 2.5 0081518151 km 156357324319/07/2019 23:54 mapa
108 km SSO de Kaktovik, Alaska 2.5 0076257625 km 156357261819/07/2019 23:43 mapa
26 km N de Piru, Indonesia 4.9 01346613466 km 156357147119/07/2019 23:24 mapa
18 km SSO de Searles Valley, CA 2.4 0094969496 km 156357089919/07/2019 23:14 mapa
26 km ONO de Volcano, Hawaii 2.4 01301013010 km 156356990219/07/2019 22:58 mapa
13 km NE de Coso Junction, CA 2.0 0094799479 km 156356927319/07/2019 22:47 mapa
31 km NE de Whittier, Alaska 2.1 0085238523 km 156356883119/07/2019 22:40 mapa
20 km ESE de Little Lake, CA 2.2 0094919491 km 156356825519/07/2019 22:30 mapa
18 km O de Searles Valley, CA 2.2 0094929492 km 156356819719/07/2019 22:29 mapa
9 km ENE de Coso Junction, CA 2.1 0094849484 km 156356733119/07/2019 22:15 mapa
24 km N de Ridgecrest, CA 2.5 0094919491 km 156356608919/07/2019 21:54 mapa
14 km NNE de Old Faithful Geyser, Wyoming 2.1 0083978397 km 156356607319/07/2019 21:54 mapa
18 km E de Little Lake, CA 2.1 0094889488 km 156356605819/07/2019 21:54 mapa
18 km E de Little Lake, CA 2.1 0094879487 km 156356541019/07/2019 21:43 mapa
9 km NE de Coso Junction, CA 2.4 0094839483 km 156356287619/07/2019 21:01 mapa
60 km SE de Estacion Coahuila, Mexico 3.0 0096069606 km 156356254819/07/2019 20:55 mapa
14 km SE de Anza, CA 3.6 0096129612 km 156356161419/07/2019 20:40 mapa
23 km N de Barceloneta, Puerto Rico 2.1 0066706670 km 156356109119/07/2019 20:31 mapa
75 km SE de Estacion Coahuila, Mexico 3.4 0096159615 km 156356054619/07/2019 20:22 mapa
1 km E de South Cleveland, Tennessee 2.2 0072127212 km 156355917619/07/2019 19:59 mapa
24 km N de Ridgecrest, CA 2.5 0094929492 km 156355891819/07/2019 19:55 mapa
75 km SE de Estacion Coahuila, Mexico 3.2 0096139613 km 156355850619/07/2019 19:48 mapa
10 km ENE de Coso Junction, CA 2.5 0094849484 km 156355843119/07/2019 19:47 mapa
68 km SE de Estacion Coahuila, Mexico 3.4 0096159615 km 156355814419/07/2019 19:42 mapa
28 km O de Petrolia, CA 2.7 0095329532 km 156355807619/07/2019 19:41 mapa
110 km SSO de Kaktovik, Alaska 3.4 0076217621 km 156355720619/07/2019 19:26 mapa
0 km E de Spring Ridge, Pennsylvania 2.2 0062536253 km 156355630719/07/2019 19:11 mapa
18 km O de Johannesburg, CA 2.6 0095389538 km 156355629319/07/2019 19:11 mapa
26 km SSO de Fairview, Oklahoma 2.3 0081888188 km 156355511819/07/2019 18:51 mapa
14 km SE de Olancha, CA 2.8 0094779477 km 156355505119/07/2019 18:50 mapa
10 km SO de Searles Valley, CA 3.5 0094919491 km 156355301819/07/2019 18:16 mapa
10 km NE de Coso Junction, CA 2.3 0094839483 km 156355255119/07/2019 18:09 mapa
86 km O de Anchor Point, Alaska 3.5 0087648764 km 156355229919/07/2019 18:04 mapa
17 km O de Searles Valley, CA 2.4 0094929492 km 156355211819/07/2019 18:01 mapa
8 km E de Ridgecrest, CA 2.2 0095059505 km 156355145619/07/2019 17:50 mapa
93 km NO de Nikiski, Alaska 2.7 0085988598 km 156355141819/07/2019 17:50 mapa
40 km ONO de Nikiski, Alaska 2.1 0086158615 km 156355141019/07/2019 17:50 mapa
16 km O de Searles Valley, CA 2.4 0094929492 km 156355125919/07/2019 17:47 mapa
30 km ESE de Farkhar, Afghanistan 4.3 0060606060 km 156355090119/07/2019 17:41 mapa
14 km SSO de Searles Valley, CA 2.2 0094949494 km 156355053319/07/2019 17:35 mapa
18 km OSO de Olancha, CA 2.1 0094939493 km 156355032919/07/2019 17:32 mapa
229 km SE de Sarangani, Philippines 4.4 01282412824 km 156354982819/07/2019 17:23 mapa
71 km SSO de Kobuk, Alaska 2.1 0081408140 km 156354830819/07/2019 16:58 mapa
78 km SSO de Kobuk, Alaska 2.1 0081478147 km 156354797819/07/2019 16:52 mapa
16 km E de Lake Pleasant, New York 2.2 0059775977 km 156354765419/07/2019 16:47 mapa
21 km S de Trona, CA 2.0 0094939493 km 156354707619/07/2019 16:37 mapa
8 km SE de Willits, CA 2.0 0095369536 km 156354658919/07/2019 16:29 mapa
21 km S de Trona, CA 2.1 0094939493 km 156354542619/07/2019 16:10 mapa
20 km S de Pahala, Hawaii 2.0 01305813058 km 156354477419/07/2019 15:59 mapa
12 km NE de Coso Junction, CA 3.4 0094809480 km 156354434119/07/2019 15:52 mapa
37 km NNO de Road Town, British Virgin Islands 2.7 0065156515 km 156354325719/07/2019 15:34 mapa
70 km SSO de Kobuk, Alaska 3.7 0081398139 km 156354325719/07/2019 15:34 mapa
23 km ESE de Little Lake, CA 2.0 0094929492 km 156354256019/07/2019 15:22 mapa
19 km ONO de Puerto Real, Puerto Rico 2.1 0067696769 km 156354254319/07/2019 15:22 mapa
21 km ESE de Little Lake, CA 3.5 0094889488 km 156354206619/07/2019 15:14 mapa
22 km ONO de Searles Valley, CA 2.3 0094909490 km 156354159619/07/2019 15:06 mapa
3 km N de East Los Angeles, CA 2.2 0096669666 km 156354132419/07/2019 15:02 mapa
9 km E de Ridgecrest, CA 3.2 0095039503 km 156354113819/07/2019 14:58 mapa
22 km SSE de Helena, Oklahoma 2.0 0081348134 km 156354055819/07/2019 14:49 mapa
116 km ONO de San Antonio de los Cobres, Argentina 4.1 0098559855 km 156353833519/07/2019 14:12 mapa
8 km NO de Fili, Greece 4.2 0020922092 km 156353831419/07/2019 14:11 mapa
13 km SSO de Searles Valley, CA 2.6 0094929492 km 156353779819/07/2019 14:03 mapa
5 km ESE de Salvaleon de Higuey, Dominican Republic 2.7 0068576857 km 156353626419/07/2019 13:37 mapa
97 km OSO de Larsen Bay, Alaska 2.0 0090779077 km 156353568919/07/2019 13:28 mapa
29 km SE de Seward, Alaska 2.2 0086418641 km 156353539219/07/2019 13:23 mapa
15 km NE de Ridgecrest, CA 2.5 0094959495 km 156353529319/07/2019 13:21 mapa
3 km NNO de Magoula, Greece 5.3 0020852085 km 156353479619/07/2019 13:13 mapa
73 km NNO de Road Town, British Virgin Islands 3.0 0064886488 km 156353441619/07/2019 13:06 mapa
19 km OSO de Hennessey, Oklahoma 2.2 0081528152 km 156353428519/07/2019 13:04 mapa
20 km S de Trona, CA 2.1 0094929492 km 156353424619/07/2019 13:04 mapa
20 km S de Trona, CA 3.6 0094929492 km 156353322519/07/2019 12:47 mapa
13 km NE de Coso Junction, CA 2.1 0094809480 km 156353283819/07/2019 12:40 mapa
30 km SSE de Tallaboa, Puerto Rico 2.0 0067366736 km 156353236319/07/2019 12:32 mapa
Banda Sea 4.3 01372813728 km 156353196219/07/2019 12:26 mapa
14 km SE de Olancha, CA 2.7 0094779477 km 156353160419/07/2019 12:20 mapa
100 km N de Itbayat, Philippines 4.5 01100511005 km 156353122919/07/2019 12:13 mapa
23 km ESE de Little Lake, CA 2.4 0094899489 km 156353084719/07/2019 12:07 mapa
19 km O de Searles Valley, CA 2.1 0094919491 km 156353014519/07/2019 11:55 mapa
64 km NE de Bomdila, India 4.7 0083758375 km 156352992219/07/2019 11:52 mapa
19 km OSO de Hennessey, Oklahoma 2.2 0081518151 km 156352965319/07/2019 11:47 mapa
10 km ENE de Coso Junction, CA 2.4 0094849484 km 156352942419/07/2019 11:43 mapa
8 km O de Mayaguez, Puerto Rico 2.1 0067566756 km 156352855719/07/2019 11:29 mapa
10 km ENE de Coso Junction, CA 2.6 0094849484 km 156352850619/07/2019 11:28 mapa
16 km ENE de Pahala, Hawaii 2.4 01302513025 km 156352846219/07/2019 11:27 mapa
10 km ENE de Coso Junction, CA 3.1 0094849484 km 156352840319/07/2019 11:26 mapa
64 km NE de Bomdila, India 5.5 0083808380 km 156352813519/07/2019 11:22 mapa
209 km O de Broome, Australia 4.5 01389613896 km 156352808719/07/2019 11:21 mapa
23 km S de Trona, CA 2.3 0094969496 km 156352776119/07/2019 11:16 mapa
14 km SSO de Searles Valley, CA 2.1 0094939493 km 156352694519/07/2019 11:02 mapa
15 km SSO de Searles Valley, CA 2.7 0094949494 km 156352622419/07/2019 10:50 mapa
12 km SO de Searles Valley, CA 2.0 0094939493 km 156352604219/07/2019 10:47 mapa
10 km ENE de Coso Junction, CA 2.0 0094829482 km 156352603619/07/2019 10:47 mapa
9 km ONO de Cobb, CA 2.3 0095549554 km 156352349019/07/2019 10:04 mapa
12 km NE de Coso Junction, CA 2.2 0094809480 km 156352296119/07/2019 09:56 mapa
22 km SO de Toms Place, CA 2.8 0094379437 km 156352268219/07/2019 09:51 mapa
20 km E de Little Lake, CA 2.5 0094859485 km 156352252919/07/2019 09:48 mapa
16 km SSO de Searles Valley, CA 2.4 0094959495 km 156352204419/07/2019 09:40 mapa
55 km S de Old Iliamna, Alaska 2.1 0088378837 km 156351981719/07/2019 09:03 mapa
42 km SO de Redoubt Volcano, Alaska 2.5 0087088708 km 156351979919/07/2019 09:03 mapa
14 km NE de Coso Junction, CA 2.5 0094799479 km 156351951619/07/2019 08:58 mapa
125 km OSO de Kota Ternate, Indonesia 4.7 01308113081 km 156351948319/07/2019 08:58 mapa
15 km ESE de Little Lake, CA 2.0 0094919491 km 156351915719/07/2019 08:52 mapa
19 km ESE de Little Lake, CA 2.2 0094929492 km 156351879319/07/2019 08:46 mapa
23 km ONO de Searles Valley, CA 2.1 0094909490 km 156351812119/07/2019 08:35 mapa
17 km O de Searles Valley, CA 2.2 0094939493 km 156351743019/07/2019 08:23 mapa
19 km E de Little Lake, CA 2.0 0094859485 km 156351729319/07/2019 08:21 mapa
162 km NNO de Dobo, Indonesia 4.6 01401514015 km 156351696819/07/2019 08:16 mapa
16 km O de Searles Valley, CA 2.0 0094919491 km 156351679819/07/2019 08:13 mapa
77 km O de Willow, Alaska 2.9 0085198519 km 156351623819/07/2019 08:03 mapa
13 km OSO de Searles Valley, CA 2.1 0094939493 km 156351549419/07/2019 07:51 mapa
59 km OSO de Anchor Point, Alaska 2.0 0087598759 km 156351547519/07/2019 07:51 mapa
62 km SSO de Daliao, Philippines 4.5 01255312553 km 156351479219/07/2019 07:39 mapa
107 km OSO de Talkeetna, Alaska 2.1 0084898489 km 156351472319/07/2019 07:38 mapa
6 km OSO de Searles Valley, CA 2.0 0094879487 km 156351468819/07/2019 07:38 mapa
4 km SSE de Yotsukaido, Japan 3.6 01079010790 km 156351358019/07/2019 07:19 mapa
12 km SO de Searles Valley, CA 2.0 0094939493 km 156351322119/07/2019 07:13 mapa
14 km SE de Volcano, Hawaii 2.5 01301213012 km 156351152219/07/2019 06:45 mapa
12 km NNO de Searles Valley, CA 2.0 0094789478 km 156351061119/07/2019 06:30 mapa
20 km ESE de Little Lake, CA 2.5 0094889488 km 156350946619/07/2019 06:11 mapa
12 km NE de Coso Junction, CA 2.1 0094809480 km 156350604419/07/2019 05:14 mapa
25 km S de Trona, CA 2.1 0094969496 km 156350508919/07/2019 04:58 mapa
14 km NE de Coso Junction, CA 3.3 0094799479 km 156350473319/07/2019 04:52 mapa
4 km S de Pahala, Hawaii 2.5 01304313043 km 156350395419/07/2019 04:39 mapa
20 km ESE de Little Lake, CA 2.6 0094909490 km 156350380819/07/2019 04:36 mapa
20 km O de Searles Valley, CA 2.5 0094929492 km 156350361419/07/2019 04:33 mapa
18 km ESE de Little Lake, CA 2.0 0094909490 km 156350357419/07/2019 04:32 mapa
13 km OSO de Searles Valley, CA 2.0 0094949494 km 156350222519/07/2019 04:10 mapa
18 km NNE de Ridgecrest, CA 2.5 0094939493 km 156350191219/07/2019 04:05 mapa
15 km SSO de Searles Valley, CA 2.2 0094949494 km 156350164019/07/2019 04:00 mapa
13 km SO de Searles Valley, CA 2.1 0094939493 km 156350049619/07/2019 03:41 mapa
98 km NNO de Road Town, British Virgin Islands 2.9 0064906490 km 156350016519/07/2019 03:36 mapa
76 km SE de Tekirova, Turkey 4.4 0027942794 km 156350002519/07/2019 03:33 mapa
63 km SO de Uyuni, Bolivia 4.9 0096089608 km 156349910419/07/2019 03:18 mapa
13 km SSO de Searles Valley, CA 2.0 0094939493 km 156349903219/07/2019 03:17 mapa
12 km ENE de Borrego Springs, CA 3.1 0096039603 km 156349784819/07/2019 02:57 mapa
1 km ESE de Big Lake, Alaska 3.0 0085028502 km 156349697819/07/2019 02:42 mapa
101 km NE de Manley Hot Springs, Alaska 2.4 0080688068 km 156349679519/07/2019 02:39 mapa
24 km N de Ridgecrest, CA 2.0 0094929492 km 156349676119/07/2019 02:39 mapa
93 km NE de Kodiak, Alaska 2.7 0088348834 km 156349598319/07/2019 02:26 mapa
16 km N de Searles Valley, CA 3.1 0094719471 km 156349556519/07/2019 02:19 mapa
18 km NNE de Shingletown, CA 2.2 0093479347 km 156349554019/07/2019 02:19 mapa
17 km N de Searles Valley, CA 2.4 0094719471 km 156349550419/07/2019 02:18 mapa
103 km NE de Punta Cana, Dominican Republic 2.7 0067356735 km 156349507419/07/2019 02:11 mapa
104 km SO de Anchor Point, Alaska 2.0 0088208820 km 156349483919/07/2019 02:07 mapa
14 km SSO de Searles Valley, CA 3.0 0094949494 km 156349447019/07/2019 02:01 mapa
13 km NE de Coso Junction, CA 2.7 0094809480 km 156349407219/07/2019 01:54 mapa
3 km ENE de Cathcart, Washington 2.0 0087658765 km 156349309319/07/2019 01:38 mapa
14 km NNE de Anchor Point, Alaska 2.3 0087078707 km 156349194219/07/2019 01:19 mapa
19 km NNE de Ridgecrest, CA 2.1 0094939493 km 156348906719/07/2019 00:31 mapa
13 km NE de Coso Junction, CA 2.3 0094809480 km 156348829419/07/2019 00:18 mapa
20 km ESE de Little Lake, CA 2.3 0094909490 km 156348741319/07/2019 00:03 mapa
19 km O de Johannesburg, CA 2.1 0095409540 km 156348722519/07/2019 00:00 mapa
18 km S de Trona, CA 2.4 0094939493 km 156348717518/07/2019 23:59 mapa
9 km O de Volcano, Hawaii 2.2 01300913009 km 156348712618/07/2019 23:58 mapa
19 km NNE de Ridgecrest, CA 3.8 0094939493 km 156348639718/07/2019 23:46 mapa
43 km S de La Romana, Dominican Republic 3.1 0069046904 km 156348557118/07/2019 23:32 mapa
7 km NE de Coso Junction, CA 2.3 0094859485 km 156348407718/07/2019 23:07 mapa
Izu Islands, Japan region 4.8 01144411444 km 156348335418/07/2019 22:55 mapa
8 km ENE de Coso Junction, CA 2.0 0094859485 km 156348277918/07/2019 22:46 mapa
272 km ESE de Kodiak, Alaska 3.3 0089748974 km 156348135118/07/2019 22:22 mapa
9 km NE de Coso Junction, CA 2.8 0094839483 km 156348101418/07/2019 22:16 mapa
21 km ONO de Searles Valley, CA 2.3 0094909490 km 156348098318/07/2019 22:16 mapa
8 km ENE de Coso Junction, CA 2.3 0094859485 km 156347939618/07/2019 21:49 mapa
14 km OSO de Searles Valley, CA 2.4 0094959495 km 156347806618/07/2019 21:27 mapa
29 km NNE de Arecibo, Puerto Rico 2.4 0066726672 km 156347709818/07/2019 21:11 mapa
18 km S de Trona, CA 2.1 0094949494 km 156347654718/07/2019 21:02 mapa
5 km NO de The Geysers, CA 2.0 0095559555 km 156347554518/07/2019 20:45 mapa
14 km SSO de Searles Valley, CA 2.1 0094949494 km 156347551318/07/2019 20:45 mapa
15 km NO de Okarche, Oklahoma 2.4 0081678167 km 156347380118/07/2019 20:16 mapa
8 km NE de Carrascal, Philippines 4.9 01230712307 km 156347163918/07/2019 19:40 mapa
16 km SO de Adlay, Philippines 4.8 01230012300 km 156347155218/07/2019 19:39 mapa
129 km OSO de Kota Ternate, Indonesia 5.3 01307313073 km 156347027118/07/2019 19:17 mapa
19 km ENE de Hoback, Wyoming 2.1 0084768476 km 156347000918/07/2019 19:13 mapa
19 km E de Little Lake, CA 2.1 0094869486 km 156346992418/07/2019 19:12 mapa
131 km OSO de Kota Ternate, Indonesia 4.8 01307813078 km 156346970118/07/2019 19:08 mapa
14 km ENE de Ridgecrest, CA 2.4 0094969496 km 156346961018/07/2019 19:06 mapa
14 km NE de Ridgecrest, CA 2.3 0094969496 km 156346882118/07/2019 18:53 mapa
20 km E de Little Lake, CA 2.6 0094859485 km 156346821718/07/2019 18:43 mapa
14 km OSO de Searles Valley, CA 2.0 0094939493 km 156346746818/07/2019 18:31 mapa
9 km O de Frontera Hidalgo, Mexico 5.1 0091279127 km 156346706418/07/2019 18:24 mapa
19 km N de Ridgecrest, CA 2.0 0094949494 km 156346663018/07/2019 18:17 mapa
11 km OSO de Searles Valley, CA 2.4 0094929492 km 156346531618/07/2019 17:55 mapa
13 km OSO de Searles Valley, CA 2.6 0094939493 km 156346494418/07/2019 17:49 mapa
24 km N de Searles Valley, CA 2.0 0094619461 km 156346487418/07/2019 17:47 mapa
18 km ESE de Little Lake, CA 2.2 0094909490 km 156346444318/07/2019 17:40 mapa
12 km ENE de Coso Junction, CA 2.3 0094829482 km 156346432818/07/2019 17:38 mapa
23 km ONO de Searles Valley, CA 2.4 0094919491 km 156346323718/07/2019 17:20 mapa
19 km O de Johannesburg, CA 2.1 0095409540 km 156346288118/07/2019 17:14 mapa
2 km NNO de The Geysers, CA 2.0 0095559555 km 156346258918/07/2019 17:09 mapa
11 km ENE de Ridgecrest, CA 2.2 0095009500 km 156346226518/07/2019 17:04 mapa
16 km O de Searles Valley, CA 2.0 0094939493 km 156346086818/07/2019 16:41 mapa
12 km NE de Ridgecrest, CA 2.0 0094979497 km 156346027618/07/2019 16:31 mapa
18 km O de Searles Valley, CA 2.5 0094929492 km 156346012318/07/2019 16:28 mapa
14 km SSO de Searles Valley, CA 2.7 0094949494 km 156345965818/07/2019 16:20 mapa
6 km NO de The Geysers, CA 2.0 0095559555 km 156345921418/07/2019 16:13 mapa
10 km ENE de Coso Junction, CA 2.1 0094849484 km 156345898118/07/2019 16:09 mapa
24 km NNE de California City, CA 2.0 0095479547 km 156345816918/07/2019 15:56 mapa
168 km ESE de Akutan, Alaska 3.7 0096229622 km 156345725718/07/2019 15:40 mapa
26 km ONO de Petrolia, CA 2.1 0095219521 km 156345702118/07/2019 15:37 mapa
104 km SE de Petropavlovsk-Kamchatskiy, Russia 4.7 0096819681 km 156345394018/07/2019 14:45 mapa
8 km E de Ridgecrest, CA 2.0 0095059505 km 156345306418/07/2019 14:31 mapa
18 km E de Little Lake, CA 2.3 0094869486 km 156345296118/07/2019 14:29 mapa
16 km SE de Volcano, Hawaii 2.5 01301213012 km 156345223718/07/2019 14:17 mapa
16 km SE de Volcano, Hawaii 2.5 01301113011 km 156345135518/07/2019 14:02 mapa
8 km SE de Boca de Yuma, Dominican Republic 2.5 0068636863 km 156345071118/07/2019 13:51 mapa
26 km N de Trona, CA 2.7 0094589458 km 156344866718/07/2019 13:17 mapa
19 km E de Little Lake, CA 2.4 0094869486 km 156344577518/07/2019 12:29 mapa
19 km SSO de Trona, CA 2.4 0094969496 km 156344545118/07/2019 12:24 mapa
16 km NNE de Hawaiian Ocean View, Hawaii 2.3 01304713047 km 156344516718/07/2019 12:19 mapa
36 km NNO de Whittier, Alaska 2.2 0085278527 km 156344468218/07/2019 12:11 mapa
19 km O de Petrolia, CA 3.0 0095259525 km 156344431818/07/2019 12:05 mapa
23 km S de Trona, CA 2.6 0094969496 km 156344383618/07/2019 11:57 mapa
61 km N de San Juan, Puerto Rico 2.6 0066036603 km 156344249318/07/2019 11:34 mapa
61 km SO de Redoubt Volcano, Alaska 2.1 0087258725 km 156344194918/07/2019 11:25 mapa
5 km N de Pahala, Hawaii 2.7 01303313033 km 156344131418/07/2019 11:15 mapa
Kuril Islands 4.7 01016910169 km 156344122918/07/2019 11:13 mapa
12 km NE de Coso Junction, CA 2.1 0094809480 km 156344075218/07/2019 11:05 mapa
35 km SE de Belen, Argentina 4.2 01012310123 km 156344023318/07/2019 10:57 mapa
Kuril Islands 5.1 01018310183 km 156343992718/07/2019 10:52 mapa
14 km SO de Searles Valley, CA 2.1 0094949494 km 156343990018/07/2019 10:51 mapa
17 km ESE de Little Lake, CA 2.6 0094919491 km 156343970818/07/2019 10:48 mapa
20 km NE de Johannesburg, CA 2.0 0095079507 km 156343955418/07/2019 10:45 mapa
9 km NE de Coso Junction, CA 2.3 0094839483 km 156343837818/07/2019 10:26 mapa
8 km NE de Coso Junction, CA 2.1 0094849484 km 156343833618/07/2019 10:25 mapa
8 km NE de Coso Junction, CA 2.3 0094849484 km 156343827518/07/2019 10:24 mapa
9 km NE de Coso Junction, CA 3.0 0094849484 km 156343812218/07/2019 10:22 mapa
72 km SSO de Kobuk, Alaska 2.0 0081428142 km 156343680818/07/2019 10:00 mapa
8 km ENE de Coso Junction, CA 2.8 0094849484 km 156343589818/07/2019 09:44 mapa
108 km ESE de King Salmon, Alaska 2.0 0089228922 km 156343447118/07/2019 09:21 mapa
14 km SO de Searles Valley, CA 2.0 0094949494 km 156343370118/07/2019 09:08 mapa
45 km OSO de Talkeetna, Alaska 2.1 0084518451 km 156343260718/07/2019 08:50 mapa
10 km NE de Coso Junction, CA 2.2 0094839483 km 156343234818/07/2019 08:45 mapa
17 km O de Searles Valley, CA 2.0 0094919491 km 156343163618/07/2019 08:33 mapa
107 km SE de Adak, Alaska 4.0 0099639963 km 156343103718/07/2019 08:23 mapa
8 km ENE de Coso Junction, CA 2.1 0094859485 km 156343080618/07/2019 08:20 mapa
10 km NE de Coso Junction, CA 3.3 0094839483 km 156343046918/07/2019 08:14 mapa
17 km SSO de Stella, Puerto Rico 2.5 0067666766 km 156343036518/07/2019 08:12 mapa
12 km SSE de Pahala, Hawaii 2.2 01304713047 km 156342928518/07/2019 07:54 mapa
13 km NE de Ridgecrest, CA 2.1 0094969496 km 156342910018/07/2019 07:51 mapa
13 km NE de Ridgecrest, CA 2.1 0094969496 km 156342910018/07/2019 07:51 mapa
128 km ENE de Laiwui, Indonesia 4.1 01336113361 km 156342902018/07/2019 07:50 mapa
13 km S de Pahala, Hawaii 2.6 01305013050 km 156342844218/07/2019 07:40 mapa
21 km SE de Pecos, Texas 2.9 0088608860 km 156342810318/07/2019 07:35 mapa
20 km ESE de Little Lake, CA 2.0 0094919491 km 156342795718/07/2019 07:32 mapa
59 km NNE de Sutton-Alpine, Alaska 2.0 0083938393 km 156342771318/07/2019 07:28 mapa
10 km NE de Coso Junction, CA 2.5 0094839483 km 156342760118/07/2019 07:26 mapa
18 km S de Trona, CA 2.2 0094949494 km 156342749918/07/2019 07:24 mapa
12 km NE de Coso Junction, CA 2.3 0094809480 km 156342715418/07/2019 07:19 mapa
10 km NE de Coso Junction, CA 3.4 0094839483 km 156342709118/07/2019 07:18 mapa
13 km NE de Coso Junction, CA 2.2 0094809480 km 156342685618/07/2019 07:14 mapa
13 km NE de Coso Junction, CA 2.0 0094809480 km 156342679218/07/2019 07:13 mapa
10 km SSE de Pahala, Hawaii 2.0 01304613046 km 156342553618/07/2019 06:52 mapa
10 km NNE de Coso Junction, CA 2.0 0094839483 km 156342509918/07/2019 06:44 mapa
21 km ENE de Little Lake, CA 2.5 0094809480 km 156342435818/07/2019 06:32 mapa
9 km ENE de Coso Junction, CA 2.3 0094859485 km 156342426818/07/2019 06:31 mapa
10 km NE de Coso Junction, CA 2.2 0094839483 km 156342362218/07/2019 06:20 mapa
9 km NE de Coso Junction, CA 2.9 0094849484 km 156342333718/07/2019 06:15 mapa
7 km NE de Coso Junction, CA 2.2 0094869486 km 156342326418/07/2019 06:14 mapa
7 km NE de Coso Junction, CA 2.3 0094859485 km 156342324318/07/2019 06:14 mapa
7 km NE de Coso Junction, CA 2.3 0094859485 km 156342313618/07/2019 06:12 mapa
10 km NE de Coso Junction, CA 2.4 0094839483 km 156342308618/07/2019 06:11 mapa
10 km NE de Coso Junction, CA 2.0 0094829482 km 156342285118/07/2019 06:07 mapa
11 km NNE de Coso Junction, CA 2.7 0094829482 km 156342278818/07/2019 06:06 mapa
9 km NE de Coso Junction, CA 2.4 0094839483 km 156342269718/07/2019 06:04 mapa
9 km NE de Coso Junction, CA 3.4 0094839483 km 156342252718/07/2019 06:02 mapa
10 km NE de Coso Junction, CA 3.4 0094839483 km 156342249218/07/2019 06:01 mapa
10 km NE de Coso Junction, CA 2.8 0094829482 km 156342245118/07/2019 06:00 mapa
9 km NE de Coso Junction, CA 4.6 0094839483 km 156342235418/07/2019 05:59 mapa
14 km NE de Coso Junction, CA 2.2 0094799479 km 156342037218/07/2019 05:26 mapa
15 km S de Searles Valley, CA 2.7 0094939493 km 156341913918/07/2019 05:05 mapa
18 km SSO de Searles Valley, CA 3.2 0094969496 km 156341895718/07/2019 05:02 mapa
15 km S de Searles Valley, CA 2.8 0094939493 km 156341739118/07/2019 04:36 mapa
16 km S de Searles Valley, CA 2.6 0094949494 km 156341729918/07/2019 04:34 mapa
16 km O de Searles Valley, CA 3.3 0094939493 km 156341722318/07/2019 04:33 mapa
13 km NE de Coso Junction, CA 2.2 0094809480 km 156341678018/07/2019 04:26 mapa
13 km NE de Coso Junction, CA 2.2 0094809480 km 156341513918/07/2019 03:58 mapa
19 km ESE de Little Lake, CA 2.3 0094909490 km 156341423418/07/2019 03:43 mapa
24 km OSO de Willow, Alaska 2.0 0085018501 km 156341416818/07/2019 03:42 mapa
275 km SE de Kodiak, Alaska 4.0 0089998999 km 156341330118/07/2019 03:28 mapa
251 km NNO de Puerto Ayora, Ecuador 5.4 0099379937 km 156341262718/07/2019 03:17 mapa
14 km ENE de Ridgecrest, CA 2.2 0094979497 km 156341202418/07/2019 03:07 mapa
20 km E de Coso Junction, CA 2.4 0094799479 km 156341195418/07/2019 03:05 mapa
273 km N de Puerto Ayora, Ecuador 4.5 0099119911 km 156341109118/07/2019 02:51 mapa
21 km E de Honaunau-Napoopoo, Hawaii 2.1 01302313023 km 156341107918/07/2019 02:51 mapa
21 km ONO de Searles Valley, CA 2.5 0094919491 km 156341080618/07/2019 02:46 mapa
11 km OSO de Searles Valley, CA 2.0 0094919491 km 156341029518/07/2019 02:38 mapa
255 km NNO de Puerto Ayora, Ecuador 4.5 0099409940 km 156341022418/07/2019 02:37 mapa
10 km ENE de Pahala, Hawaii 2.9 01303013030 km 156340825418/07/2019 02:04 mapa
13 km NE de Coso Junction, CA 2.1 0094809480 km 156340780818/07/2019 01:56 mapa
18 km O de Searles Valley, CA 2.0 0094929492 km 156340744818/07/2019 01:50 mapa
85 km SSE de Nikolski, Alaska 4.2 0098119811 km 156340726218/07/2019 01:47 mapa
2 km ENE de Cathcart, Washington 3.0 0087648764 km 156340699718/07/2019 01:43 mapa
12 km NE de Coso Junction, CA 2.1 0094809480 km 156340651118/07/2019 01:35 mapa
15 km SSO de Searles Valley, CA 2.5 0094959495 km 156340553118/07/2019 01:18 mapa
143 km NNE de Palue, Indonesia 4.7 01340113401 km 156340438718/07/2019 00:59 mapa
36 km N de Shadegan, Iran 4.2 0045184518 km 156340353518/07/2019 00:45 mapa
19 km O de Johannesburg, CA 3.2 0095409540 km 156340327518/07/2019 00:41 mapa
13 km NE de Coso Junction, CA 2.6 0094809480 km 156340255518/07/2019 00:29 mapa
Northern East Pacific Rise 4.8 01046010460 km 156340180418/07/2019 00:16 mapa
14 km SSO de Searles Valley, CA 3.4 0094939493 km 156340089518/07/2019 00:01 mapa
14 km SE de Olancha, CA 2.7 0094769476 km 156340088018/07/2019 00:01 mapa
67 km N de San Juan, Puerto Rico 2.2 0066016601 km 156340018417/07/2019 23:49 mapa
13 km NE de Coso Junction, CA 3.9 0094809480 km 156340015917/07/2019 23:49 mapa
14 km SE de Olancha, CA 2.1 0094779477 km 156340011717/07/2019 23:48 mapa
15 km OSO de Searles Valley, CA 2.0 0094949494 km 156339921617/07/2019 23:33 mapa
26 km ENE de Little Lake, CA 2.1 0094749474 km 156339862617/07/2019 23:23 mapa
2 km SSO de Cherokee, Oklahoma 2.4 0081258125 km 156339791917/07/2019 23:11 mapa
18 km S de Trona, CA 2.1 0094939493 km 156339695617/07/2019 22:55 mapa
92 km NO de Nikiski, Alaska 2.0 0085758575 km 156339670917/07/2019 22:51 mapa
90 km NO de Nikiski, Alaska 2.0 0085778577 km 156339651717/07/2019 22:48 mapa
13 km NNE de Mineral, CA 2.0 0093459345 km 156339645317/07/2019 22:47 mapa
20 km E de Little Lake, CA 3.4 0094889488 km 156339324317/07/2019 21:54 mapa
14 km SSO de Searles Valley, CA 2.7 0094939493 km 156339255117/07/2019 21:42 mapa
14 km SSO de Searles Valley, CA 3.6 0094949494 km 156339253517/07/2019 21:42 mapa
14 km SE de Olancha, CA 2.0 0094779477 km 156339240217/07/2019 21:40 mapa
10 km SO de Searles Valley, CA 2.0 0094919491 km 156339066917/07/2019 21:11 mapa
20 km S de Trona, CA 2.6 0094969496 km 156339012317/07/2019 21:02 mapa
13 km ENE de Ridgecrest, CA 2.0 0094989498 km 156338916417/07/2019 20:46 mapa
14 km SE de Olancha, CA 2.4 0094769476 km 156338862517/07/2019 20:37 mapa
3 km ENE de Quinton, Oklahoma 2.3 0080088008 km 156338716917/07/2019 20:12 mapa
9 km NO de Tiptonville, Tennessee 2.5 0074937493 km 156338353117/07/2019 19:12 mapa
14 km SSO de Searles Valley, CA 2.0 0094949494 km 156338310917/07/2019 19:05 mapa
219 km E de Port Blair, India 4.9 0096369636 km 156338253417/07/2019 18:55 mapa
22 km ESE de Little Lake, CA 2.8 0094899489 km 156338199917/07/2019 18:46 mapa
68 km S de Homer, Alaska 2.4 0087878787 km 156338189917/07/2019 18:44 mapa
20 km SO de Manley Hot Springs, Alaska 2.8 0081828182 km 156338059217/07/2019 18:23 mapa
10 km NNE de Coso Junction, CA 2.0 0094839483 km 156337984717/07/2019 18:10 mapa
0 km ONO de Maricao, Puerto Rico 2.0 0067366736 km 156337892817/07/2019 17:55 mapa
74 km S de Kobuk, Alaska 2.0 0081438143 km 156337887617/07/2019 17:54 mapa
69 km SSO de Kobuk, Alaska 2.9 0081388138 km 156337826517/07/2019 17:44 mapa
8 km SO de New Tazewell, Tennessee 3.0 0070477047 km 156337700817/07/2019 17:23 mapa
24 km OSO de Sarpol-e Zahab, Iran 4.5 0041034103 km 156337677217/07/2019 17:19 mapa
11 km ENE de Ridgecrest, CA 2.1 0095009500 km 156337640617/07/2019 17:13 mapa
18 km ESE de Little Lake, CA 3.1 0094909490 km 156337632017/07/2019 17:12 mapa
18 km ESE de Little Lake, CA 3.3 0094909490 km 156337631017/07/2019 17:11 mapa
18 km ESE de Little Lake, CA 3.0 0094909490 km 156337604017/07/2019 17:07 mapa
227 km O de Bandon, Oregon 5.4 0093939393 km 156337559917/07/2019 16:59 mapa
134 km ENE de Laiwui, Indonesia 5.1 01336213362 km 156337547817/07/2019 16:57 mapa
14 km SSO de Searles Valley, CA 2.4 0094959495 km 156337508217/07/2019 16:51 mapa
81 km SSO de Kobuk, Alaska 3.0 0081518151 km 156337503517/07/2019 16:50 mapa
69 km SSO de Kobuk, Alaska 2.7 0081398139 km 156337493717/07/2019 16:48 mapa
11 km SSO de Searles Valley, CA 3.1 0094929492 km 156337492617/07/2019 16:48 mapa
22 km S de Trona, CA 2.0 0094979497 km 156337456417/07/2019 16:42 mapa
69 km SSO de Kobuk, Alaska 2.0 0081398139 km 156337393817/07/2019 16:32 mapa
18 km E de Little Lake, CA 2.0 0094879487 km 156337376317/07/2019 16:29 mapa
9 km E de Coso Junction, CA 2.2 0094869486 km 156337373717/07/2019 16:28 mapa
16 km S de Searles Valley, CA 2.2 0094949494 km 156337315217/07/2019 16:19 mapa
22 km ONO de Searles Valley, CA 2.2 0094919491 km 156337083017/07/2019 15:40 mapa
4 km NNO de Salvaleon de Higuey, Dominican Republic 2.6 0068396839 km 156337044717/07/2019 15:34 mapa
20 km E de Little Lake, CA 2.7 0094859485 km 156336988017/07/2019 15:24 mapa
98 km NO de Arctic Village, Alaska 3.0 0077387738 km 156336952917/07/2019 15:18 mapa
20 km E de Little Lake, CA 3.0 0094859485 km 156336825317/07/2019 14:57 mapa
23 km E de Little Lake, CA 2.4 0094849484 km 156336714617/07/2019 14:39 mapa
20 km N de Searles Valley, CA 2.2 0094649464 km 156336704417/07/2019 14:37 mapa
15 km SO de Searles Valley, CA 2.0 0094969496 km 156336667017/07/2019 14:31 mapa
11 km S de Searles Valley, CA 2.7 0094899489 km 156336546917/07/2019 14:11 mapa
82 km ONO de Glennallen, Alaska 2.3 0083458345 km 156336411817/07/2019 13:48 mapa
13 km NE de Coso Junction, CA 2.1 0094809480 km 156336386817/07/2019 13:44 mapa
10 km NE de Coso Junction, CA 2.0 0094839483 km 156336316717/07/2019 13:32 mapa
9 km NE de Coso Junction, CA 2.0 0094839483 km 156336297117/07/2019 13:29 mapa
10 km NE de Coso Junction, CA 2.0 0094839483 km 156336294117/07/2019 13:29 mapa
20 km E de Little Lake, CA 2.2 0094859485 km 156336194817/07/2019 13:12 mapa
11 km N de Coso Junction, CA 2.2 0094849484 km 156336050917/07/2019 12:48 mapa
66 km S de Kobuk, Alaska 3.0 0081458145 km 156336008917/07/2019 12:41 mapa
213 km OSO de Broome, Australia 4.5 01392213922 km 156335881017/07/2019 12:20 mapa
17 km ESE de Little Lake, CA 2.0 0094949494 km 156335765517/07/2019 12:00 mapa
8 km SO de Pahala, Hawaii 2.2 01304713047 km 156335722117/07/2019 11:53 mapa
14 km SSO de Searles Valley, CA 2.6 0094939493 km 156335676617/07/2019 11:46 mapa
Off the coast of Central America 4.4 0091329132 km 156335665717/07/2019 11:44 mapa
1 km SE de Palomas, Puerto Rico 2.3 0067376737 km 156335662017/07/2019 11:43 mapa
6 km SE de Pahala, Hawaii 2.7 01304113041 km 156335627617/07/2019 11:37 mapa
20 km S de Trona, CA 2.4 0094929492 km 156335562417/07/2019 11:27 mapa
13 km SE de Olancha, CA 2.3 0094769476 km 156335501317/07/2019 11:16 mapa
38 km SSE de Fredonia, Arizona 2.7 0090949094 km 156335481017/07/2019 11:13 mapa
11 km SSE de Ofunato, Japan 4.8 01053210532 km 156335401917/07/2019 11:00 mapa
13 km OSO de Toms Place, CA 2.0 0094289428 km 156335175517/07/2019 10:22 mapa
14 km NO de Mankato, Kansas 2.7 0079177917 km 156335094117/07/2019 10:09 mapa
7 km NE de Irmo, South Carolina 2.2 0069776977 km 156335085617/07/2019 10:07 mapa
4 km ESE de Pinnacles, CA 2.1 0096469646 km 156334928117/07/2019 09:41 mapa
38 km NE de Y, Alaska 2.0 0084008400 km 156334881317/07/2019 09:33 mapa
92 km N de Redoubt Volcano, Alaska 2.3 0085788578 km 156334871717/07/2019 09:31 mapa
5 km O de Fuig, Puerto Rico 2.1 0067476747 km 156334782017/07/2019 09:17 mapa
220 km O de Bandon, Oregon 2.7 0093999399 km 156334733717/07/2019 09:08 mapa
16 km E de Ridgecrest, CA 2.3 0094979497 km 156334613417/07/2019 08:48 mapa
22 km ESE de Little Lake, CA 2.2 0094919491 km 156334586617/07/2019 08:44 mapa
138 km NNE de Vieques, Puerto Rico 3.3 0065166516 km 156334547517/07/2019 08:37 mapa
50 km SSE de San Mateo del Mar, Mexico 4.9 0092819281 km 156334474917/07/2019 08:25 mapa
17 km ONO de Westmorland, CA 2.0 0095909590 km 156334468017/07/2019 08:24 mapa
22 km N de Ridgecrest, CA 2.3 0094929492 km 156334369717/07/2019 08:08 mapa
23 km ESE de Ridgecrest, CA 2.3 0095019501 km 156334346017/07/2019 08:04 mapa
22 km ESE de Little Lake, CA 3.1 0094919491 km 156334259217/07/2019 07:49 mapa
5 km NNO de Ridgely, Tennessee 2.4 0074987498 km 156334106317/07/2019 07:24 mapa
9 km ENE de Coso Junction, CA 2.2 0094859485 km 156334103517/07/2019 07:23 mapa
16 km S de Searles Valley, CA 2.6 0094939493 km 156334056017/07/2019 07:16 mapa
16 km S de Searles Valley, CA 2.3 0094949494 km 156334051717/07/2019 07:15 mapa
10 km NE de Coso Junction, CA 2.2 0094829482 km 156333913617/07/2019 06:52 mapa
23 km NE de Valdez, Alaska 2.2 0084388438 km 156333857717/07/2019 06:42 mapa
51 km N de Isabela, Puerto Rico 2.8 0066996699 km 156333761017/07/2019 06:26 mapa
22 km N de Ridgecrest, CA 2.1 0094929492 km 156333707917/07/2019 06:17 mapa
15 km SSO de Searles Valley, CA 2.0 0094949494 km 156333697117/07/2019 06:16 mapa
14 km SSO de Searles Valley, CA 2.4 0094959495 km 156333661917/07/2019 06:10 mapa
2 km SO de Miguel Hidalgo, Mexico 2.9 0093819381 km 156333599117/07/2019 05:59 mapa
10 km NNE de Coso Junction, CA 2.9 0094829482 km 156333515817/07/2019 05:45 mapa
22 km N de Ridgecrest, CA 2.3 0094929492 km 156333505617/07/2019 05:44 mapa
14 km SE de Puebla, B.C., MX 2.4 0096029602 km 156333462117/07/2019 05:37 mapa
31 km SSE de Waimea, Hawaii 2.2 01298412984 km 156333404617/07/2019 05:27 mapa
10 km NNE de Coso Junction, CA 3.5 0094839483 km 156333380717/07/2019 05:23 mapa
10 km NNE de Coso Junction, CA 3.2 0094839483 km 156333376917/07/2019 05:22 mapa
15 km ENE de Ridgecrest, CA 2.6 0094959495 km 156333290917/07/2019 05:08 mapa
10 km ESE de Puebla, B.C., MX 2.0 0096009600 km 156333282917/07/2019 05:07 mapa
9 km NE de Coso Junction, CA 2.3 0094839483 km 156333221717/07/2019 04:56 mapa
18 km SSE de Esperanza, Puerto Rico 2.7 0066126612 km 156333202117/07/2019 04:53 mapa
10 km NE de Coso Junction, CA 2.2 0094839483 km 156333176117/07/2019 04:49 mapa
10 km NNE de Coso Junction, CA 2.2 0094839483 km 156333159717/07/2019 04:46 mapa
10 km NNE de Coso Junction, CA 2.1 0094829482 km 156333144817/07/2019 04:44 mapa
10 km NE de Coso Junction, CA 2.2 0094829482 km 156333111517/07/2019 04:38 mapa
10 km NE de Coso Junction, CA 2.2 0094829482 km 156333108917/07/2019 04:38 mapa
10 km NE de Coso Junction, CA 3.2 0094839483 km 156333098917/07/2019 04:36 mapa
10 km NE de Coso Junction, CA 2.4 0094829482 km 156333094017/07/2019 04:35 mapa
10 km NNE de Coso Junction, CA 3.1 0094839483 km 156333092717/07/2019 04:35 mapa
10 km NE de Coso Junction, CA 2.2 0094829482 km 156333085617/07/2019 04:34 mapa
10 km NE de Coso Junction, CA 2.7 0094839483 km 156333065017/07/2019 04:30 mapa
10 km NE de Coso Junction, CA 4.4 0094839483 km 156333054717/07/2019 04:29 mapa
10 km NE de Coso Junction, CA 2.0 0094839483 km 156333050617/07/2019 04:28 mapa
9 km ESE de Puebla, B.C., MX 2.3 0096009600 km 156333050417/07/2019 04:28 mapa
11 km SO de Searles Valley, CA 2.1 0094919491 km 156333002117/07/2019 04:20 mapa
17 km SSO de Trona, CA 2.4 0094949494 km 156332906717/07/2019 04:04 mapa
143 km NO de Visokoi Island, South Georgia and the South Sandwich Islands 4.7 01085810858 km 156332871217/07/2019 03:58 mapa
133 km OSO de Kota Ternate, Indonesia 4.7 01306313063 km 156332864617/07/2019 03:57 mapa
17 km SSO de Searles Valley, CA 3.1 0094979497 km 156332804417/07/2019 03:47 mapa
21 km ESE de Little Lake, CA 2.5 0094919491 km 156332557117/07/2019 03:06 mapa
16 km S de Searles Valley, CA 3.3 0094949494 km 156332479617/07/2019 02:53 mapa
16 km SSO de Searles Valley, CA 2.1 0094959495 km 156332442017/07/2019 02:47 mapa
12 km SSE de Medford, Oklahoma 2.1 0080788078 km 156332129517/07/2019 01:54 mapa
Owen Fracture Zone region 4.7 0061446144 km 156332095017/07/2019 01:49 mapa
20 km NNE de Ridgecrest, CA 2.5 0094929492 km 156332058317/07/2019 01:43 mapa
21 km S de Trona, CA 2.1 0094959495 km 156331868717/07/2019 01:11 mapa
10 km ENE de Coso Junction, CA 2.6 0094849484 km 156331744017/07/2019 00:50 mapa
12 km SSO de Searles Valley, CA 2.2 0094929492 km 156331694617/07/2019 00:42 mapa
16 km SSO de Searles Valley, CA 2.4 0094969496 km 156331682117/07/2019 00:40 mapa
51 km SE de Cape Yakataga, Alaska 2.5 0084718471 km 156331678117/07/2019 00:39 mapa
17 km O de Searles Valley, CA 2.6 0094919491 km 156331672317/07/2019 00:38 mapa
14 km SSO de Searles Valley, CA 2.1 0094949494 km 156331629317/07/2019 00:31 mapa
103 km S de Merizo Village, Guam 5.6 01325313253 km 156331463117/07/2019 00:03 mapa
104 km SSO de Kaktovik, Alaska 3.6 0076247624 km 156331336116/07/2019 23:42 mapa
94 km O de Cantwell, Alaska 2.3 0083358335 km 156331296816/07/2019 23:36 mapa
1 km SSE de Princeton, Canada 2.2 0085588558 km 156331161316/07/2019 23:13 mapa
13 km SSO de Chernabura Island, Alaska 2.7 0094119411 km 156331160316/07/2019 23:13 mapa
20 km ESE de Little Lake, CA 3.0 0094909490 km 156331118116/07/2019 23:06 mapa
13 km OSO de Byron, CA 2.1 0095799579 km 156331101616/07/2019 23:03 mapa
10 km ENE de Coso Junction, CA 2.0 0094849484 km 156331033816/07/2019 22:52 mapa
28 km E de Coso Junction, CA 2.0 0094729472 km 156331014916/07/2019 22:49 mapa
105 km NNO de San Antonio de los Cobres, Argentina 4.5 0097679767 km 156330909316/07/2019 22:31 mapa
21 km ESE de Little Lake, CA 2.2 0094919491 km 156330894716/07/2019 22:29 mapa
12 km OSO de Byron, CA 3.2 0095789578 km 156330865616/07/2019 22:24 mapa
10 km ENE de Coso Junction, CA 2.0 0094849484 km 156330861416/07/2019 22:23 mapa
24 km ESE de Ridgecrest, CA 2.8 0095009500 km 156330827116/07/2019 22:17 mapa
14 km SO de Searles Valley, CA 3.6 0094959495 km 156330815916/07/2019 22:15 mapa
19 km NNE de Ridgecrest, CA 4.5 0094939493 km 156330813616/07/2019 22:15 mapa
12 km OSO de Byron, CA 4.3 0095789578 km 156330786116/07/2019 22:11 mapa
18 km SSO de Searles Valley, CA 2.3 0094979497 km 156330614516/07/2019 21:42 mapa
17 km SSO de Searles Valley, CA 2.1 0094959495 km 156330575716/07/2019 21:35 mapa
14 km SE de Olancha, CA 2.7 0094779477 km 156330503016/07/2019 21:23 mapa
88 km N de Redoubt Volcano, Alaska 2.4 0085768576 km 156330457616/07/2019 21:16 mapa
50 km E de Lazy Mountain, Alaska 2.0 0084538453 km 156330454616/07/2019 21:15 mapa
7 km ESE de Coso Junction, CA 2.5 0094899489 km 156330430816/07/2019 21:11 mapa
18 km E de Little Lake, CA 2.0 0094849484 km 156330384016/07/2019 21:04 mapa
14 km ENE de Ridgecrest, CA 2.5 0094969496 km 156330366016/07/2019 21:01 mapa
20 km SSO de Trona, CA 2.1 0094969496 km 156330286816/07/2019 20:47 mapa
14 km OSO de Searles Valley, CA 2.7 0094939493 km 156330218616/07/2019 20:36 mapa
11 km N de Olancha, CA 2.3 0094699469 km 156330213816/07/2019 20:35 mapa
14 km ENE de Ridgecrest, CA 2.0 0094979497 km 156330135116/07/2019 20:22 mapa
88 km S de Kuh Sefid, Iran 4.3 0053345334 km 156330092616/07/2019 20:15 mapa

853 earthquakes found. Click on location or map links for more details from the USGS

Mapa y datos cortesía de Servicio Geológico de Estados Unidos.